Time;durP1;ratioP1;P1;durP2;ratioP2;P2;SDS_P1;SDS_P2;PMS_P1;PMS_P2;Temp;Humidity;BMP_temperature;BMP_pressure;BME280_temperature;BME280_humidity;BME280_pressure;Samples;Min_cycle;Max_cycle;Signal;HPM_P1;HPM_P2
2022/11/01 00:02:42;;;;;;;3.45;0.80;;;;;;;4.54;84.12;100339.84;10415261;28;20045;-69
2022/11/01 00:07:42;;;;;;;2.83;1.00;;;;;;;4.76;84.38;100370.44;10415872;28;20060;-69
2022/11/01 00:12:44;;;;;;;3.17;1.05;;;;;;;4.75;84.06;100386.34;10414411;28;20037;-70
2022/11/01 00:17:45;;;;;;;1.17;0.50;;;;;;;4.67;84.41;100394.91;10414681;28;20056;-69
2022/11/01 00:22:45;;;;;;;1.95;0.60;;;;;;;4.64;83.96;100395.16;10413999;28;20037;-68
2022/11/01 00:27:46;;;;;;;2.50;0.50;;;;;;;4.08;84.58;100322.63;10414824;28;20128;-69
2022/11/01 00:32:47;;;;;;;1.70;0.55;;;;;;;4.25;83.26;100378.28;10423702;28;20067;-69
2022/11/01 00:37:48;;;;;;;1.73;0.43;;;;;;;4.14;81.83;100407.22;10455492;28;20132;-69
2022/11/01 00:42:48;;;;;;;0.98;0.40;;;;;;;3.80;80.47;100381.03;10454557;28;20048;-69
2022/11/01 00:47:49;;;;;;;1.25;0.30;;;;;;;3.09;79.63;100297.38;10448802;28;20119;-68
2022/11/01 00:52:50;;;;;;;1.25;0.50;;;;;;;3.65;79.31;100414.66;10454247;28;20049;-69
2022/11/01 00:57:51;;;;;;;2.28;1.27;;;;;;;3.03;79.69;100349.53;10421247;28;20053;-69
2022/11/01 01:02:52;;;;;;;2.25;0.52;;;;;;;3.56;79.81;100452.97;10412927;28;20037;-69
2022/11/01 01:07:52;;;;;;;2.40;0.40;;;;;;;3.49;79.84;100454.41;10435534;28;20040;-69
2022/11/01 01:12:53;;;;;;;0.70;0.30;;;;;;;3.36;79.51;100456.31;10444137;28;20053;-69
2022/11/01 01:17:54;;;;;;;1.10;0.32;;;;;;;3.17;80.04;100447.25;10413323;28;20052;-69
2022/11/01 01:22:55;;;;;;;0.90;0.30;;;;;;;3.16;80.53;100460.47;10423949;28;20045;-69
2022/11/01 01:27:56;;;;;;;1.50;0.30;;;;;;;2.80;81.04;100424.75;10436092;28;20033;-69
2022/11/01 01:32:57;;;;;;;1.33;0.40;;;;;;;2.90;81.06;100463.31;10447225;28;20053;-68
2022/11/01 01:37:57;;;;;;;2.17;0.45;;;;;;;2.69;81.27;100446.53;10421367;28;20037;-69
2022/11/01 01:42:58;;;;;;;1.02;0.40;;;;;;;2.18;81.34;100370.78;10420355;28;20128;-69
2022/11/01 01:48:23;;;;;;;1.42;0.40;;;;;;;2.48;81.51;100430.59;10459890;28;20120;-68
2022/11/01 01:53:29;;;;;;;2.20;0.40;;;;;;;2.35;81.88;100422.00;10461475;28;20045;-69
2022/11/01 01:58:34;;;;;;;1.40;0.50;;;;;;;2.59;81.73;100470.00;10461623;28;20037;-70
2022/11/01 02:03:37;;;;;;;1.10;0.50;;;;;;;2.49;81.89;100472.47;10460523;28;20098;-68
2022/11/01 02:08:43;;;;;;;0.68;0.30;;;;;;;2.21;81.59;100425.59;10433513;28;20048;-69
2022/11/01 02:13:44;;;;;;;1.60;0.35;;;;;;;2.25;81.23;100443.63;10419311;28;20060;-69
2022/11/01 02:19:13;;;;;;;2.45;0.70;;;;;;;1.92;82.00;100397.16;10419639;28;20038;-69
2022/11/01 02:24:23;;;;;;;2.88;0.50;;;;;;;2.38;81.61;100489.94;10419588;28;20046;-68
2022/11/01 02:29:45;;;;;;;1.65;0.40;;;;;;;1.88;82.21;100423.66;10419367;28;20071;-68
2022/11/01 02:34:48;;;;;;;2.30;0.30;;;;;;;2.25;81.52;100497.84;10417893;28;20057;-68
2022/11/01 02:39:54;;;;;;;1.45;0.40;;;;;;;1.71;81.46;100410.00;10431463;28;20054;-69
2022/11/01 02:45:03;;;;;;;2.78;0.38;;;;;;;2.14;81.99;100485.50;10415647;28;20450;-69
2022/11/01 02:50:08;;;;;;;1.27;0.30;;;;;;;2.31;82.13;100505.28;10415937;28;20397;-69
2022/11/01 02:55:29;;;;;;;3.35;0.63;;;;;;;2.44;83.68;100523.56;10416376;28;20041;-69
2022/11/01 03:00:33;;;;;;;5.35;0.60;;;;;;;2.38;83.51;100524.84;10415768;28;20457;-69
2022/11/01 03:06:12;;;;;;;4.22;0.60;;;;;;;2.31;84.20;100534.09;10415370;28;20497;-69
2022/11/01 03:11:18;;;;;;;5.95;0.95;;;;;;;2.11;84.15;100545.16;10393634;28;20057;-69
2022/11/01 03:16:28;;;;;;;2.10;0.55;;;;;;;1.99;84.45;100549.50;10414562;28;20099;-69
2022/11/01 03:21:35;;;;;;;11.80;0.93;;;;;;;1.88;84.80;100528.44;10414447;28;20045;-69
2022/11/01 03:26:38;;;;;;;2.50;0.63;;;;;;;2.05;85.29;100549.88;10414818;28;20045;-69
2022/11/01 03:31:40;;;;;;;4.10;0.50;;;;;;;1.87;85.82;100540.72;10364400;28;1455625;-70
2022/11/01 03:36:58;;;;;;;3.90;1.02;;;;;;;1.53;85.90;100479.38;10416366;28;20077;-69
2022/11/01 03:42:07;;;;;;;17.40;1.35;;;;;;;1.50;85.57;100477.81;10417022;28;20516;-70
2022/11/01 03:47:10;;;;;;;8.32;1.33;;;;;;;1.52;86.04;100486.38;10416114;28;20069;-69
2022/11/01 03:52:11;;;;;;;7.30;1.00;;;;;;;2.01;85.91;100561.53;10414363;28;20144;-69
2022/11/01 03:57:11;;;;;;;6.05;0.80;;;;;;;1.97;85.39;100552.19;10415545;28;20117;-69
2022/11/01 04:02:12;;;;;;;1.80;0.50;;;;;;;2.46;85.75;100568.88;10440166;28;20056;-69
2022/11/01 04:07:13;;;;;;;1.55;0.45;;;;;;;2.56;85.72;100533.16;10430790;28;20051;-69
2022/11/01 04:12:14;;;;;;;2.00;0.30;;;;;;;2.77;85.74;100503.69;10426727;28;20045;-69
2022/11/01 04:22:35;;;;;;;4.13;0.60;;;;;;;3.78;83.42;100583.50;10447681;28;20067;-70
2022/11/01 04:27:36;;;;;;;1.17;0.40;;;;;;;3.75;82.51;100578.47;10453310;28;20072;-70
2022/11/01 04:32:37;;;;;;;1.15;0.38;;;;;;;3.49;81.54;100564.72;10453147;28;20147;-70
2022/11/01 04:37:37;;;;;;;1.40;0.50;;;;;;;2.84;80.17;100436.66;10449218;28;20131;-69
2022/11/01 04:42:39;;;;;;;1.80;0.45;;;;;;;3.29;79.20;100528.63;10451268;28;20416;-70
2022/11/01 04:47:49;;;;;;;1.50;0.55;;;;;;;3.82;78.50;100605.13;10424596;28;20124;-69
2022/11/01 04:52:50;;;;;;;4.38;0.70;;;;;;;4.07;78.16;100625.94;10414253;28;20140;-69
2022/11/01 04:57:51;;;;;;;2.95;0.80;;;;;;;4.03;76.96;100606.06;10423218;28;20127;-69
2022/11/01 05:02:59;;;;;;;1.73;0.63;;;;;;;4.31;76.30;100638.97;10412697;28;20512;-69
2022/11/01 05:08:08;;;;;;;3.97;0.60;;;;;;;4.43;74.92;100649.44;10413937;28;20089;-69
2022/11/01 05:13:11;;;;;;;1.55;0.77;;;;;;;4.12;76.08;100578.22;10412479;28;20077;-69
2022/11/01 05:18:11;;;;;;;6.57;1.08;;;;;;;4.68;75.38;100648.34;10412563;28;20046;-69
2022/11/01 05:23:12;;;;;;;2.30;0.68;;;;;;;4.80;74.01;100644.75;10412709;28;20488;-70
2022/11/01 05:28:13;;;;;;;2.58;0.77;;;;;;;4.58;74.00;100606.16;10413444;28;20073;-69
2022/11/01 05:33:14;;;;;;;7.47;0.73;;;;;;;4.85;73.92;100645.22;10437224;28;20057;-69
2022/11/01 05:38:15;;;;;;;1.33;0.40;;;;;;;4.59;72.55;100555.19;10440965;28;20041;-69
2022/11/01 05:43:15;;;;;;;2.25;0.70;;;;;;;4.88;72.73;100607.28;10411247;28;20037;-69
2022/11/01 05:48:16;;;;;;;2.40;0.55;;;;;;;5.07;71.95;100632.94;10412423;28;20417;-69
2022/11/01 05:53:17;;;;;;;1.13;0.50;;;;;;;5.25;71.91;100626.16;10411755;28;20056;-69
2022/11/01 05:58:17;;;;;;;3.35;0.60;;;;;;;5.22;71.71;100616.69;10412352;28;20041;-69
2022/11/01 06:03:18;;;;;;;1.73;0.40;;;;;;;5.47;71.41;100626.06;10411639;28;20048;-69
2022/11/01 06:08:19;;;;;;;1.45;0.43;;;;;;;5.42;70.67;100601.88;10413433;28;20057;-70
2022/11/01 06:13:20;;;;;;;1.23;0.68;;;;;;;5.31;70.31;100578.22;10413121;28;20045;-69
2022/11/01 06:18:20;;;;;;;2.00;0.65;;;;;;;5.63;69.96;100606.31;10419466;28;20374;-69
2022/11/01 06:23:21;;;;;;;4.90;0.73;;;;;;;5.75;69.37;100601.81;10418832;28;20524;-69
2022/11/01 06:28:22;;;;;;;3.45;0.50;;;;;;;5.29;67.77;100522.19;10419049;28;20155;-69
2022/11/01 06:33:23;;;;;;;1.88;0.55;;;;;;;5.39;68.50;100525.75;10419071;28;20439;-70
2022/11/01 06:38:24;;;;;;;1.88;0.70;;;;;;;5.49;67.75;100520.50;10418278;28;20048;-70
2022/11/01 06:43:24;;;;;;;1.55;0.60;;;;;;;6.00;67.08;100587.38;10418016;28;20041;-71
2022/11/01 06:48:26;;;;;;;3.35;0.55;;;;;;;6.05;66.59;100575.47;10418043;28;20048;-69
2022/11/01 06:53:27;;;;;;;5.97;0.65;;;;;;;6.11;65.72;100567.03;10417719;28;20128;-70
2022/11/01 06:58:27;;;;;;;3.88;0.60;;;;;;;6.12;65.17;100573.13;10417512;28;20034;-69
2022/11/01 07:03:28;;;;;;;1.58;0.52;;;;;;;6.25;65.03;100583.44;10417742;28;20045;-69
2022/11/01 07:08:29;;;;;;;2.63;0.60;;;;;;;6.39;64.34;100583.91;10417572;28;20424;-70
2022/11/01 07:13:32;;;;;;;7.53;0.70;;;;;;;6.54;63.88;100565.03;10417657;28;20045;-69
2022/11/01 07:18:33;;;;;;;4.63;0.82;;;;;;;6.76;63.08;100577.16;10417235;28;20080;-69
2022/11/01 07:23:34;;;;;;;2.33;0.70;;;;;;;6.36;62.55;100485.72;10417018;28;20073;-69
2022/11/01 07:28:35;;;;;;;1.90;0.60;;;;;;;6.58;62.21;100511.84;10416090;28;20052;-69
2022/11/01 07:33:36;;;;;;;2.22;0.65;;;;;;;7.19;62.30;100576.75;10417139;28;20053;-68
2022/11/01 07:38:37;;;;;;;1.48;0.40;;;;;;;7.28;61.66;100556.56;10415889;28;20136;-69
2022/11/01 07:43:38;;;;;;;0.93;0.20;;;;;;;7.40;60.07;100562.53;10416324;28;20075;-69
2022/11/01 07:48:39;;;;;;;1.55;0.40;;;;;;;7.43;59.96;100556.97;10415363;28;20068;-68
2022/11/01 07:53:39;;;;;;;1.05;0.50;;;;;;;7.49;59.26;100562.50;10415271;28;20056;-69
2022/11/01 07:58:42;;;;;;;1.40;0.43;;;;;;;7.45;58.93;100536.50;10415013;28;20046;-69
2022/11/01 08:03:43;;;;;;;0.93;0.40;;;;;;;7.50;58.53;100535.09;10415438;28;20041;-68
2022/11/01 08:08:44;;;;;;;2.55;0.57;;;;;;;7.59;57.80;100556.38;10414770;28;20128;-67
2022/11/01 08:13:46;;;;;;;1.52;0.40;;;;;;;7.51;57.56;100528.84;10415637;28;20049;-70
2022/11/01 08:18:47;;;;;;;2.50;0.40;;;;;;;7.28;57.59;100459.63;10415354;28;20041;-68
2022/11/01 08:23:48;;;;;;;2.13;0.60;;;;;;;7.78;57.51;100527.22;10414745;28;20041;-68
2022/11/01 08:28:49;;;;;;;2.38;0.80;;;;;;;8.13;58.85;100531.78;10413769;28;20429;-68
2022/11/01 08:33:50;;;;;;;4.05;0.90;;;;;;;7.72;57.52;100451.97;10414616;28;20057;-68
2022/11/01 08:38:51;;;;;;;4.97;0.80;;;;;;;7.64;58.04;100441.28;10414276;28;20042;-68
2022/11/01 08:43:52;;;;;;;2.10;0.90;;;;;;;8.30;58.46;100524.03;10413985;28;20084;-69
2022/11/01 08:48:58;;;;;;;3.72;0.80;;;;;;;8.04;58.14;100442.72;10414391;28;20155;-68
2022/11/01 08:53:58;;;;;;;3.40;0.93;;;;;;;8.29;58.37;100429.75;10413182;28;20037;-68
2022/11/01 08:58:59;;;;;;;2.10;1.00;;;;;;;8.74;58.53;100495.06;10414058;28;20041;-68
2022/11/01 09:04:00;;;;;;;2.63;0.98;;;;;;;8.87;58.65;100487.53;10413199;28;20116;-68
2022/11/01 09:09:01;;;;;;;4.68;0.90;;;;;;;8.81;57.75;100474.91;10413166;28;20042;-68
2022/11/01 09:14:02;;;;;;;2.47;1.08;;;;;;;8.86;57.79;100473.47;10413191;28;20041;-67
2022/11/01 09:19:03;;;;;;;5.88;1.23;;;;;;;8.91;57.22;100473.00;10412475;28;20505;-68
2022/11/01 09:24:04;;;;;;;5.85;1.40;;;;;;;8.98;57.49;100463.44;10412859;28;20041;-68
2022/11/01 09:29:05;;;;;;;4.90;1.10;;;;;;;8.91;57.25;100457.94;10417107;28;20065;-67
2022/11/01 09:34:05;;;;;;;3.58;0.80;;;;;;;9.02;57.29;100456.84;10451277;28;20666;-69
2022/11/01 09:39:06;;;;;;;2.80;1.30;;;;;;;8.48;56.99;100381.97;10427653;28;20045;-69
2022/11/01 09:44:17;;;;;;;3.83;1.02;;;;;;;9.04;56.68;100456.72;10431274;28;20123;-68
2022/11/01 09:49:25;;;;;;;1.65;0.60;;;;;;;8.70;55.86;100380.63;10441207;28;20049;-68
2022/11/01 09:54:26;;;;;;;4.15;0.80;;;;;;;9.23;55.95;100458.31;10431326;28;20045;-68
2022/11/01 09:59:44;;;;;;;1.10;0.47;;;;;;;9.25;55.56;100456.34;10419695;28;20476;-69
2022/11/01 10:04:57;;;;;;;2.97;0.70;;;;;;;8.86;55.76;100374.63;10438595;28;20045;-68
2022/11/01 10:10:23;;;;;;;2.97;0.57;;;;;;;9.47;54.81;100441.72;10436454;28;20111;-69
2022/11/01 10:15:48;;;;;;;4.43;1.35;;;;;;;9.69;55.14;100445.59;10439530;28;20068;-69
2022/11/01 10:20:48;;;;;;;2.25;0.73;;;;;;;9.55;55.21;100439.94;10436742;28;20036;-67
2022/11/01 10:25:53;;;;;;;4.85;0.82;;;;;;;9.46;55.46;100430.28;10443187;28;20547;-69
2022/11/01 10:31:02;;;;;;;2.65;0.68;;;;;;;9.77;54.38;100443.00;10434810;28;20501;-68
2022/11/01 10:36:11;;;;;;;2.08;0.75;;;;;;;9.80;55.23;100445.31;10436271;28;20045;-69
2022/11/01 10:41:37;;;;;;;1.55;0.70;;;;;;;9.50;54.79;100398.97;10439274;28;20065;-68
2022/11/01 10:46:44;;;;;;;2.22;0.90;;;;;;;9.73;54.63;100439.84;10445685;28;20045;-67
2022/11/01 10:51:46;;;;;;;2.03;0.70;;;;;;;9.42;55.43;100369.75;10459127;28;20044;-68
2022/11/01 10:56:50;;;;;;;1.88;0.90;;;;;;;9.65;54.56;100444.28;10423510;28;20041;-68
2022/11/01 11:01:53;;;;;;;2.25;0.70;;;;;;;9.51;55.02;100404.13;10417157;28;20532;-68
2022/11/01 11:06:55;;;;;;;1.70;0.80;;;;;;;9.79;54.95;100441.84;10417249;28;20116;-68
2022/11/01 11:12:02;;;;;;;1.92;0.80;;;;;;;9.73;54.54;100446.97;10416898;28;20091;-69
2022/11/01 11:17:14;;;;;;;3.15;1.48;;;;;;;9.70;54.64;100439.31;10417435;28;20033;-68
2022/11/01 11:22:15;;;;;;;4.90;1.13;;;;;;;9.65;55.06;100446.94;10416787;28;20120;-68
2022/11/01 11:27:27;;;;;;;2.85;1.00;;;;;;;9.58;54.18;100436.94;10417844;28;20136;-69
2022/11/01 11:32:34;;;;;;;6.72;1.10;;;;;;;9.49;54.25;100427.31;10416638;28;20461;-68
2022/11/01 11:37:38;;;;;;;2.05;1.00;;;;;;;9.50;54.63;100436.91;10415901;28;20057;-68
2022/11/01 11:42:39;;;;;;;2.22;0.90;;;;;;;9.54;55.18;100453.34;10415782;28;20041;-68
2022/11/01 11:47:40;;;;;;;4.65;1.13;;;;;;;9.54;55.01;100467.44;10414462;28;20132;-68
2022/11/01 11:52:41;;;;;;;3.08;0.85;;;;;;;9.50;55.27;100467.91;10415813;28;20041;-68
2022/11/01 11:57:51;;;;;;;4.20;0.80;;;;;;;9.45;55.04;100457.75;10430962;28;20063;-68
2022/11/01 12:02:52;;;;;;;4.78;1.00;;;;;;;9.63;55.51;100491.34;10430409;28;20393;-69
2022/11/01 12:07:54;;;;;;;6.85;2.50;;;;;;;8.99;55.64;100396.22;10434743;28;20049;-69
2022/11/01 12:12:55;;;;;;;3.13;1.17;;;;;;;9.42;55.60;100475.81;10434627;28;20040;-69
2022/11/01 12:18:16;;;;;;;3.47;1.15;;;;;;;9.38;56.37;100470.00;10434860;28;20040;-69
2022/11/01 12:23:29;;;;;;;12.98;6.32;;;;;;;9.24;57.16;100460.78;10429206;28;20155;-68
2022/11/01 12:28:38;;;;;;;4.60;1.83;;;;;;;9.31;56.57;100487.53;10433440;28;20075;-67
2022/11/01 12:33:44;;;;;;;3.63;1.00;;;;;;;8.81;56.81;100422.75;10431390;28;20053;-68
2022/11/01 12:38:51;;;;;;;4.38;1.30;;;;;;;9.07;57.16;100482.91;10428388;28;20409;-68
2022/11/01 12:43:57;;;;;;;1.98;0.70;;;;;;;9.02;56.78;100496.59;10435588;28;20037;-66
2022/11/01 12:49:05;;;;;;;5.75;0.98;;;;;;;8.89;56.94;100493.53;10436300;28;20052;-68
2022/11/01 12:54:33;;;;;;;1.88;0.73;;;;;;;8.73;57.28;100485.44;10440876;28;20120;-68
2022/11/01 12:59:37;;;;;;;4.35;0.75;;;;;;;8.52;58.00;100478.63;10443432;28;20092;-68
2022/11/01 13:04:51;;;;;;;5.03;1.00;;;;;;;8.03;58.37;100419.88;10426673;28;20548;-67
2022/11/01 13:10:09;;;;;;;2.50;0.93;;;;;;;8.46;58.85;100511.00;10423773;28;20080;-67
2022/11/01 13:15:36;;;;;;;2.42;0.77;;;;;;;8.01;59.96;100480.03;10413940;28;20037;-67
2022/11/01 13:20:42;;;;;;;2.97;0.93;;;;;;;8.24;60.39;100536.06;10448478;28;20040;-68
2022/11/01 13:25:43;;;;;;;4.63;1.08;;;;;;;8.09;60.76;100541.00;10447800;28;20041;-67
2022/11/01 13:30:57;;;;;;;5.13;0.80;;;;;;;7.96;61.43;100556.41;10446654;28;20041;-66
2022/11/01 13:36:13;;;;;;;5.55;1.00;;;;;;;7.71;62.35;100537.53;10424971;28;20068;-67
2022/11/01 13:41:21;;;;;;;3.47;1.00;;;;;;;7.12;62.32;100469.13;10431508;28;20049;-67
2022/11/01 13:46:50;;;;;;;3.20;0.98;;;;;;;7.54;63.31;100567.38;10420618;28;20048;-68
2022/11/01 13:52:09;;;;;;;3.05;1.10;;;;;;;7.29;64.04;100556.41;10427289;28;20049;-67
2022/11/01 13:57:14;;;;;;;6.32;1.30;;;;;;;6.14;64.77;100402.41;10415016;28;20212;-68
2022/11/01 14:02:26;;;;;;;;;;;;;;;7.11;63.98;100568.69;10425846;28;20077;-68
2022/11/01 14:07:41;;;;;;;2.90;1.00;;;;;;;6.88;65.04;100576.06;10413814;28;19917;-67
2022/11/01 14:12:44;;;;;;;4.93;1.38;;;;;;;6.82;65.45;100582.75;10424761;28;20041;-67
2022/11/01 14:18:02;;;;;;;3.17;0.90;;;;;;;6.68;66.10;100590.22;10413826;28;20128;-64
2022/11/01 14:23:26;;;;;;;2.28;1.10;;;;;;;6.58;66.40;100587.53;10433200;28;20045;-67
2022/11/01 14:28:30;;;;;;;2.45;1.10;;;;;;;5.89;66.35;100491.56;10432007;28;20064;-68
2022/11/01 14:33:30;;;;;;;3.77;1.27;;;;;;;6.45;66.30;100594.88;10434425;28;20064;-67
2022/11/01 14:38:39;;;;;;;3.75;1.70;;;;;;;6.43;67.06;100597.66;10433839;28;20049;-68
2022/11/01 14:43:44;;;;;;;4.57;1.35;;;;;;;6.25;67.47;100586.94;10450443;28;20049;-68
2022/11/01 14:48:51;;;;;;;3.88;1.05;;;;;;;6.07;68.19;100580.59;10434989;28;20041;-68
2022/11/01 14:54:11;;;;;;;3.92;1.20;;;;;;;5.78;68.50;100538.28;10453498;28;20041;-68
2022/11/01 14:59:23;;;;;;;8.77;1.30;;;;;;;6.10;68.25;100622.53;10426789;28;20090;-68
2022/11/01 15:04:30;;;;;;;2.47;1.10;;;;;;;6.04;70.98;100628.34;10431420;28;20508;-68
2022/11/01 15:09:31;;;;;;;4.95;2.30;;;;;;;5.42;69.91;100549.19;10434078;28;20463;-68
2022/11/01 15:14:40;;;;;;;3.75;1.92;;;;;;;5.88;70.48;100645.44;10435503;28;20080;-68
2022/11/01 15:19:44;;;;;;;8.75;2.70;;;;;;;5.70;71.59;100645.19;10437130;28;20132;-68
2022/11/01 15:24:46;;;;;;;3.47;1.90;;;;;;;5.09;71.53;100560.75;10434903;28;20041;-68
2022/11/01 15:29:47;;;;;;;6.18;2.17;;;;;;;5.11;72.33;100568.50;10425582;28;20049;-68
2022/11/01 15:34:56;;;;;;;5.07;1.55;;;;;;;5.60;74.14;100660.13;10417288;28;20406;-67
2022/11/01 15:39:59;;;;;;;20.45;2.67;;;;;;;5.40;72.79;100651.22;10427111;28;20421;-68
2022/11/01 15:45:25;;;;;;;3.65;1.40;;;;;;;5.59;74.13;100674.25;10415793;28;20578;-68
2022/11/01 15:50:33;;;;;;;2.90;1.30;;;;;;;5.43;73.28;100663.31;10416801;28;20539;-68
2022/11/01 15:55:40;;;;;;;5.35;2.10;;;;;;;5.53;74.46;100681.81;10416232;28;20045;-67
2022/11/01 16:00:49;;;;;;;5.70;1.77;;;;;;;5.39;74.79;100691.72;10415110;28;20471;-67
2022/11/01 16:05:56;;;;;;;8.18;1.45;;;;;;;5.10;74.83;100678.28;10430730;28;20068;-67
2022/11/01 16:10:57;;;;;;;4.13;1.30;;;;;;;4.93;74.39;100695.44;10415340;28;20102;-68
2022/11/01 16:16:05;;;;;;;7.55;1.83;;;;;;;4.80;76.80;100707.91;10427661;28;20064;-68
2022/11/01 16:21:28;;;;;;;7.82;1.60;;;;;;;4.72;77.85;100699.78;10414766;28;20045;-69
2022/11/01 16:26:29;;;;;;;5.43;2.55;;;;;;;4.64;76.38;100702.19;10415279;28;20048;-68
2022/11/01 16:31:32;;;;;;;5.68;1.95;;;;;;;4.64;76.86;100702.19;10414820;28;20532;-69
2022/11/01 16:36:36;;;;;;;3.53;1.70;;;;;;;4.14;76.62;100612.31;10424519;28;20041;-68
2022/11/01 16:41:37;;;;;;;6.65;1.80;;;;;;;4.07;76.18;100591.75;10413080;28;20041;-68
2022/11/01 16:46:38;;;;;;;5.40;1.90;;;;;;;4.69;76.70;100700.03;10428565;28;20041;-68
2022/11/01 16:51:40;;;;;;;5.55;2.10;;;;;;;4.64;77.25;100699.56;10414045;28;20033;-69
2022/11/01 16:56:50;;;;;;;4.70;1.60;;;;;;;4.61;78.54;100702.41;10420023;28;20131;-68
2022/11/01 17:01:54;;;;;;;4.28;1.85;;;;;;;4.19;77.60;100631.16;10429341;28;20088;-68
2022/11/01 17:06:57;;;;;;;3.80;1.88;;;;;;;4.38;78.01;100676.13;10424908;28;20033;-69
2022/11/01 17:11:58;;;;;;;5.05;1.60;;;;;;;4.00;78.06;100616.81;10431317;28;20057;-68
2022/11/01 17:17:05;;;;;;;3.00;1.30;;;;;;;4.60;78.10;100725.25;10444085;28;20099;-68
2022/11/01 17:22:18;;;;;;;4.20;1.42;;;;;;;4.56;78.80;100729.09;10428008;28;20037;-68
2022/11/01 17:27:19;;;;;;;9.00;2.00;;;;;;;4.46;78.47;100728.16;10433344;28;20120;-70
2022/11/01 17:32:20;;;;;;;8.73;1.90;;;;;;;4.41;78.47;100736.38;10442212;28;20065;-68
2022/11/01 17:37:22;;;;;;;6.45;2.42;;;;;;;3.83;78.58;100633.91;10429196;28;20076;-68
2022/11/01 17:42:23;;;;;;;5.60;2.20;;;;;;;3.95;78.51;100666.31;10427385;28;20152;-68
2022/11/01 17:47:24;;;;;;;8.50;2.08;;;;;;;4.22;78.92;100704.56;10433177;28;20175;-68
2022/11/01 17:52:25;;;;;;;4.55;2.05;;;;;;;4.27;79.43;100718.19;10434502;28;20049;-68
2022/11/01 17:57:25;;;;;;;5.80;2.00;;;;;;;4.15;79.35;100692.84;10443941;28;20040;-68
2022/11/01 18:02:27;;;;;;;7.88;2.25;;;;;;;4.33;79.20;100712.47;10427244;28;20498;-68
2022/11/01 18:07:35;;;;;;;5.30;2.35;;;;;;;3.83;80.73;100630.47;10433700;28;20124;-68
2022/11/01 18:12:52;;;;;;;7.47;2.33;;;;;;;4.30;79.90;100729.31;10454506;28;20476;-68
2022/11/01 18:18:31;;;;;;;3.65;1.90;;;;;;;3.92;81.66;100656.03;10458207;28;20053;-69
2022/11/01 18:23:32;;;;;;;4.03;1.70;;;;;;;4.31;79.27;100714.41;10428756;28;20053;-68
2022/11/01 18:28:34;;;;;;;8.88;2.33;;;;;;;3.81;79.46;100606.09;10449119;28;20033;-69
2022/11/01 18:33:53;;;;;;;5.25;2.15;;;;;;;4.60;79.66;100724.44;10439889;28;20067;-68
2022/11/01 18:39:12;;;;;;;4.28;2.08;;;;;;;4.32;80.47;100663.47;10444796;28;20052;-69
2022/11/01 18:44:13;;;;;;;6.72;2.55;;;;;;;4.55;79.68;100701.97;10419243;28;20047;-68
2022/11/01 18:49:14;;;;;;;6.28;2.33;;;;;;;4.52;79.93;100731.13;10418380;28;20045;-69
2022/11/01 18:54:29;;;;;;;7.70;2.47;;;;;;;4.39;81.54;100733.03;10417954;28;20037;-68
2022/11/01 18:59:37;;;;;;;5.88;2.20;;;;;;;4.32;81.10;100731.84;10417612;28;20045;-68
2022/11/01 19:04:41;;;;;;;5.32;2.13;;;;;;;4.20;81.67;100727.53;10419825;28;20417;-68
2022/11/01 19:09:50;;;;;;;6.13;2.53;;;;;;;3.98;82.28;100720.41;10441237;28;20044;-68
2022/11/01 19:14:55;;;;;;;9.95;2.83;;;;;;;3.66;82.25;100681.66;10416346;28;20560;-68
2022/11/01 19:19:58;;;;;;;6.88;2.50;;;;;;;3.77;82.00;100725.50;10417194;28;20052;-69
2022/11/01 19:25:00;;;;;;;11.82;1.77;;;;;;;3.49;82.26;100716.22;10417350;28;20045;-68
2022/11/01 19:30:01;;;;;;;7.55;2.35;;;;;;;2.86;82.32;100628.94;10416315;28;20512;-68
2022/11/01 19:35:02;;;;;;;6.10;2.53;;;;;;;3.23;82.48;100715.50;10416813;28;20058;-68
2022/11/01 19:40:11;;;;;;;9.50;2.88;;;;;;;3.01;83.48;100703.91;10435099;28;20519;-68
2022/11/01 19:45:11;;;;;;;7.25;2.40;;;;;;;3.11;83.20;100728.56;10416029;28;20037;-69
2022/11/01 19:50:20;;;;;;;8.40;2.60;;;;;;;3.17;84.12;100728.13;10416477;28;20056;-68
2022/11/01 19:55:35;;;;;;;10.77;2.92;;;;;;;3.25;85.91;100718.84;10416007;28;20033;-69
2022/11/01 20:00:37;;;;;;;13.55;2.50;;;;;;;2.92;84.05;100675.72;10415308;28;20041;-68
2022/11/01 20:05:38;;;;;;;8.15;2.10;;;;;;;3.11;83.81;100711.97;10417560;28;20404;-68
2022/11/01 20:10:39;;;;;;;13.55;2.58;;;;;;;3.05;84.03;100715.91;10469575;28;20485;-68
2022/11/01 20:15:40;;;;;;;17.45;2.65;;;;;;;2.80;84.13;100692.34;10449291;28;20038;-68
2022/11/01 20:20:42;;;;;;;13.07;2.67;;;;;;;2.87;84.61;100710.19;10440999;28;20106;-68
2022/11/01 20:25:43;;;;;;;12.75;2.88;;;;;;;2.76;84.57;100712.72;10414178;28;20489;-68
2022/11/01 20:30:44;;;;;;;10.77;2.40;;;;;;;2.69;84.80;100706.22;10413904;28;20052;-68
2022/11/01 20:35:45;;;;;;;11.30;3.00;;;;;;;2.46;84.71;100686.88;10414724;28;20045;-68
2022/11/01 20:40:46;;;;;;;5.78;2.33;;;;;;;2.52;85.32;100704.78;10413860;28;20045;-68
2022/11/01 20:45:46;;;;;;;10.02;2.20;;;;;;;2.40;85.36;100690.75;10413406;28;20041;-68
2022/11/01 20:50:47;;;;;;;7.53;2.50;;;;;;;2.59;85.25;100703.41;10413262;28;20079;-68
2022/11/01 20:55:48;;;;;;;7.32;2.38;;;;;;;2.56;85.43;100689.69;10414174;28;20041;-69
2022/11/01 21:00:52;;;;;;;7.70;2.13;;;;;;;2.41;85.23;100655.72;10414552;28;20045;-68
2022/11/01 21:05:53;;;;;;;7.43;2.33;;;;;;;2.33;85.44;100637.06;10413457;28;20102;-68
2022/11/01 21:11:08;;;;;;;6.82;2.42;;;;;;;2.81;87.44;100691.38;10413811;28;20099;-68
2022/11/01 21:16:22;;;;;;;6.05;2.90;;;;;;;3.08;87.19;100707.81;10413309;28;20037;-68
2022/11/01 21:21:34;;;;;;;11.60;3.20;;;;;;;3.24;86.66;100706.69;10413847;28;20065;-68
2022/11/01 21:26:38;;;;;;;9.63;3.10;;;;;;;3.44;85.44;100711.31;10427789;28;20037;-68
2022/11/01 21:31:39;;;;;;;8.15;3.47;;;;;;;3.58;85.17;100703.22;10412539;28;20053;-68
2022/11/01 21:36:46;;;;;;;6.10;3.25;;;;;;;3.71;86.97;100708.44;10413350;28;20041;-67
2022/11/01 21:41:56;;;;;;;5.70;3.00;;;;;;;3.78;85.36;100703.53;10412522;28;20048;-68
2022/11/01 21:47:21;;;;;;;8.35;2.72;;;;;;;3.80;86.91;100699.84;10417798;28;20033;-68
2022/11/01 21:52:22;;;;;;;10.25;2.75;;;;;;;3.65;85.00;100708.88;10420610;28;20501;-68
2022/11/01 21:57:22;;;;;;;7.40;2.70;;;;;;;3.12;84.89;100664.63;10420035;28;20409;-68
2022/11/01 22:02:23;;;;;;;5.82;3.30;;;;;;;2.91;85.91;100669.63;10419971;28;20045;-68
2022/11/01 22:07:24;;;;;;;8.80;3.15;;;;;;;2.74;86.31;100691.81;10420230;28;20037;-68
2022/11/01 22:12:25;;;;;;;5.95;2.85;;;;;;;2.62;86.41;100697.94;10420261;28;20048;-68
2022/11/01 22:17:26;;;;;;;10.75;3.15;;;;;;;2.44;86.82;100705.31;10435369;28;20042;-68
2022/11/01 22:22:27;;;;;;;9.13;3.10;;;;;;;2.16;86.72;100710.81;10419564;28;20041;-68
2022/11/01 22:27:27;;;;;;;9.52;3.10;;;;;;;1.61;87.01;100631.53;10418815;28;20044;-68
2022/11/01 22:32:28;;;;;;;6.22;3.03;;;;;;;2.05;87.11;100714.97;10419484;28;20157;-68
2022/11/01 22:37:32;;;;;;;6.47;2.97;;;;;;;1.58;87.08;100650.91;10433701;28;20055;-68
2022/11/01 22:42:33;;;;;;;9.60;3.05;;;;;;;1.95;87.54;100713.94;10460701;28;20041;-68
2022/11/01 22:47:34;;;;;;;5.18;3.08;;;;;;;1.77;87.44;100695.06;10459495;28;20049;-68
2022/11/01 22:52:46;;;;;;;11.07;3.35;;;;;;;1.87;88.77;100713.59;10458917;28;20504;-69
2022/11/01 22:57:58;;;;;;;9.20;4.10;;;;;;;2.13;88.88;100719.72;10458847;28;20037;-68
2022/11/01 23:03:19;;;;;;;11.60;3.95;;;;;;;2.58;91.58;100701.75;10474473;28;20560;-68
2022/11/01 23:08:27;;;;;;;9.50;4.53;;;;;;;3.10;90.13;100707.66;10458701;28;20037;-68
2022/11/01 23:18:56;;;;;;;9.65;4.75;;;;;;;3.10;86.81;100614.00;10459346;28;20041;-68
2022/11/01 23:23:57;;;;;;;10.23;4.68;;;;;;;3.76;86.78;100705.44;10458503;28;20515;-68
2022/11/01 23:28:59;;;;;;;8.05;4.43;;;;;;;3.90;86.89;100707.88;10457495;28;20041;-68
2022/11/01 23:34:00;;;;;;;9.20;4.30;;;;;;;3.45;86.38;100614.97;10458882;28;20067;-68
2022/11/01 23:39:12;;;;;;;8.13;4.20;;;;;;;4.03;87.27;100698.09;10457298;28;20052;-68
2022/11/01 23:44:17;;;;;;;8.48;4.20;;;;;;;3.93;86.81;100675.25;10457740;28;20044;-68
2022/11/01 23:49:24;;;;;;;9.07;4.10;;;;;;;3.65;86.65;100617.75;10457339;28;20037;-68